sensor_id;sensor_type;location;lat;lon;timestamp;pressure;altitude;pressure_sealevel;temperature
47484;BMP280;54076;50.322;18.650;2022-09-20T00:00:47;98923.90;;;11.09
47484;BMP280;54076;50.322;18.650;2022-09-20T00:05:49;98921.09;;;11.14
47484;BMP280;54076;50.322;18.650;2022-09-20T00:10:49;98922.90;;;11.15
47484;BMP280;54076;50.322;18.650;2022-09-20T00:15:51;98919.85;;;11.14
47484;BMP280;54076;50.322;18.650;2022-09-20T00:20:52;98921.11;;;11.12
47484;BMP280;54076;50.322;18.650;2022-09-20T00:25:59;98920.38;;;11.20
47484;BMP280;54076;50.322;18.650;2022-09-20T00:31:00;98923.09;;;11.13
47484;BMP280;54076;50.322;18.650;2022-09-20T00:36:01;98924.25;;;11.15
47484;BMP280;54076;50.322;18.650;2022-09-20T00:41:02;98923.39;;;11.19
47484;BMP280;54076;50.322;18.650;2022-09-20T00:46:04;98929.88;;;11.13
47484;BMP280;54076;50.322;18.650;2022-09-20T00:51:10;98928.27;;;11.16
47484;BMP280;54076;50.322;18.650;2022-09-20T00:56:21;98925.79;;;11.20
47484;BMP280;54076;50.322;18.650;2022-09-20T01:01:25;98926.34;;;11.17
47484;BMP280;54076;50.322;18.650;2022-09-20T01:06:26;98927.30;;;11.16
47484;BMP280;54076;50.322;18.650;2022-09-20T01:11:29;98932.33;;;10.94
47484;BMP280;54076;50.322;18.650;2022-09-20T01:16:31;98933.92;;;11.10
47484;BMP280;54076;50.322;18.650;2022-09-20T01:21:33;98934.58;;;11.01
47484;BMP280;54076;50.322;18.650;2022-09-20T01:31:55;98928.81;;;10.94
47484;BMP280;54076;50.322;18.650;2022-09-20T01:42:13;98937.67;;;11.01
47484;BMP280;54076;50.322;18.650;2022-09-20T01:47:39;98938.61;;;11.09
47484;BMP280;54076;50.322;18.650;2022-09-20T01:59:15;98939.16;;;10.98
47484;BMP280;54076;50.322;18.650;2022-09-20T02:15:18;98943.43;;;11.08
47484;BMP280;54076;50.322;18.650;2022-09-20T02:20:43;98944.63;;;10.97
47484;BMP280;54076;50.322;18.650;2022-09-20T02:48:04;98947.16;;;10.97
47484;BMP280;54076;50.322;18.650;2022-09-20T03:33:08;98967.36;;;10.73
47484;BMP280;54076;50.322;18.650;2022-09-20T03:49:36;98970.95;;;10.78
47484;BMP280;54076;50.322;18.650;2022-09-20T04:11:02;98980.25;;;10.77
47484;BMP280;54076;50.322;18.650;2022-09-20T04:16:52;98982.85;;;10.71
47484;BMP280;54076;50.322;18.650;2022-09-20T04:21:59;98987.69;;;10.72
47484;BMP280;54076;50.322;18.650;2022-09-20T04:37:37;98992.40;;;10.68
47484;BMP280;54076;50.322;18.650;2022-09-20T05:00:13;99005.16;;;10.70
47484;BMP280;54076;50.322;18.650;2022-09-20T05:32:55;99034.48;;;10.91
47484;BMP280;54076;50.322;18.650;2022-09-20T05:43:54;99042.38;;;11.02
47484;BMP280;54076;50.322;18.650;2022-09-20T05:49:19;99041.11;;;10.86
47484;BMP280;54076;50.322;18.650;2022-09-20T06:00:22;99048.55;;;10.98
47484;BMP280;54076;50.322;18.650;2022-09-20T06:11:52;99050.41;;;10.90
47484;BMP280;54076;50.322;18.650;2022-09-20T06:17:19;99056.71;;;10.97
47484;BMP280;54076;50.322;18.650;2022-09-20T06:22:49;99064.66;;;10.93
47484;BMP280;54076;50.322;18.650;2022-09-20T06:27:59;99064.45;;;11.13
47484;BMP280;54076;50.322;18.650;2022-09-20T06:43:59;99068.52;;;11.35
47484;BMP280;54076;50.322;18.650;2022-09-20T06:49:02;99070.52;;;11.48
47484;BMP280;54076;50.322;18.650;2022-09-20T06:54:05;99071.22;;;11.58
47484;BMP280;54076;50.322;18.650;2022-09-20T06:59:07;99070.98;;;11.77
47484;BMP280;54076;50.322;18.650;2022-09-20T07:04:11;99075.78;;;11.49
47484;BMP280;54076;50.322;18.650;2022-09-20T07:09:12;99088.31;;;11.52
47484;BMP280;54076;50.322;18.650;2022-09-20T07:14:12;99090.60;;;11.51
47484;BMP280;54076;50.322;18.650;2022-09-20T07:19:15;99097.58;;;11.68
47484;BMP280;54076;50.322;18.650;2022-09-20T07:24:16;99099.82;;;11.63
47484;BMP280;54076;50.322;18.650;2022-09-20T07:29:17;99098.64;;;11.61
47484;BMP280;54076;50.322;18.650;2022-09-20T07:34:18;99098.42;;;11.54
47484;BMP280;54076;50.322;18.650;2022-09-20T07:39:20;99102.45;;;11.70
47484;BMP280;54076;50.322;18.650;2022-09-20T07:44:20;99104.93;;;11.79
47484;BMP280;54076;50.322;18.650;2022-09-20T07:49:25;99106.71;;;11.96
47484;BMP280;54076;50.322;18.650;2022-09-20T07:54:27;99114.31;;;11.97
47484;BMP280;54076;50.322;18.650;2022-09-20T07:59:28;99119.40;;;11.95
47484;BMP280;54076;50.322;18.650;2022-09-20T08:04:29;99119.60;;;12.39
47484;BMP280;54076;50.322;18.650;2022-09-20T08:09:30;99121.36;;;12.35
47484;BMP280;54076;50.322;18.650;2022-09-20T08:14:31;99127.34;;;12.74
47484;BMP280;54076;50.322;18.650;2022-09-20T08:19:32;99130.19;;;12.82
47484;BMP280;54076;50.322;18.650;2022-09-20T08:24:32;99124.69;;;12.64
47484;BMP280;54076;50.322;18.650;2022-09-20T08:29:33;99127.70;;;12.87
47484;BMP280;54076;50.322;18.650;2022-09-20T08:34:34;99135.27;;;12.71
47484;BMP280;54076;50.322;18.650;2022-09-20T08:39:35;99137.15;;;12.66
47484;BMP280;54076;50.322;18.650;2022-09-20T08:44:48;99140.10;;;12.50
47484;BMP280;54076;50.322;18.650;2022-09-20T08:49:52;99147.44;;;12.57
47484;BMP280;54076;50.322;18.650;2022-09-20T08:54:55;99152.02;;;12.53
47484;BMP280;54076;50.322;18.650;2022-09-20T09:00:02;99155.65;;;12.63
47484;BMP280;54076;50.322;18.650;2022-09-20T09:05:25;99155.67;;;12.84
47484;BMP280;54076;50.322;18.650;2022-09-20T09:10:34;99159.30;;;13.10
47484;BMP280;54076;50.322;18.650;2022-09-20T09:15:36;99160.39;;;12.89
47484;BMP280;54076;50.322;18.650;2022-09-20T09:20:41;99156.41;;;13.23
47484;BMP280;54076;50.322;18.650;2022-09-20T09:25:46;99151.64;;;12.94
47484;BMP280;54076;50.322;18.650;2022-09-20T09:30:48;99154.39;;;13.02
47484;BMP280;54076;50.322;18.650;2022-09-20T09:41:00;99152.91;;;13.17
47484;BMP280;54076;50.322;18.650;2022-09-20T09:46:24;99149.95;;;13.15
47484;BMP280;54076;50.322;18.650;2022-09-20T09:51:26;99149.92;;;13.68
47484;BMP280;54076;50.322;18.650;2022-09-20T10:07:16;99141.80;;;13.93
47484;BMP280;54076;50.322;18.650;2022-09-20T10:12:41;99144.66;;;13.38
47484;BMP280;54076;50.322;18.650;2022-09-20T10:28:52;99155.66;;;13.11
47484;BMP280;54076;50.322;18.650;2022-09-20T10:39:38;99139.94;;;14.76
47484;BMP280;54076;50.322;18.650;2022-09-20T10:45:11;99143.04;;;13.93
47484;BMP280;54076;50.322;18.650;2022-09-20T10:50:44;99149.90;;;13.96
47484;BMP280;54076;50.322;18.650;2022-09-20T10:56:06;99166.88;;;14.87
47484;BMP280;54076;50.322;18.650;2022-09-20T11:11:49;99168.09;;;15.05
47484;BMP280;54076;50.322;18.650;2022-09-20T11:17:02;99149.42;;;14.66
47484;BMP280;54076;50.322;18.650;2022-09-20T11:22:18;99162.48;;;16.37
47484;BMP280;54076;50.322;18.650;2022-09-20T11:27:52;99151.91;;;17.43
47484;BMP280;54076;50.322;18.650;2022-09-20T11:43:33;99137.83;;;18.61
47484;BMP280;54076;50.322;18.650;2022-09-20T11:48:50;99142.05;;;19.43
47484;BMP280;54076;50.322;18.650;2022-09-20T12:04:33;99132.70;;;19.14
47484;BMP280;54076;50.322;18.650;2022-09-20T12:09:38;99122.79;;;18.24
47484;BMP280;54076;50.322;18.650;2022-09-20T12:14:40;99133.14;;;18.77
47484;BMP280;54076;50.322;18.650;2022-09-20T12:19:41;99131.81;;;18.40
47484;BMP280;54076;50.322;18.650;2022-09-20T12:24:42;99128.60;;;18.72
47484;BMP280;54076;50.322;18.650;2022-09-20T12:30:18;99119.61;;;18.62
47484;BMP280;54076;50.322;18.650;2022-09-20T12:46:21;99109.55;;;16.79
47484;BMP280;54076;50.322;18.650;2022-09-20T12:51:31;99106.47;;;17.17
47484;BMP280;54076;50.322;18.650;2022-09-20T12:56:51;99103.98;;;17.26
47484;BMP280;54076;50.322;18.650;2022-09-20T13:01:52;99106.73;;;18.17
47484;BMP280;54076;50.322;18.650;2022-09-20T13:07:35;99106.77;;;18.23
47484;BMP280;54076;50.322;18.650;2022-09-20T13:12:39;99104.09;;;19.33
47484;BMP280;54076;50.322;18.650;2022-09-20T13:17:42;99104.21;;;20.22
47484;BMP280;54076;50.322;18.650;2022-09-20T13:22:44;99096.94;;;20.50
47484;BMP280;54076;50.322;18.650;2022-09-20T13:28:05;99098.59;;;20.04
47484;BMP280;54076;50.322;18.650;2022-09-20T13:33:23;99102.56;;;19.94
47484;BMP280;54076;50.322;18.650;2022-09-20T13:38:28;99103.29;;;19.41
47484;BMP280;54076;50.322;18.650;2022-09-20T13:43:45;99107.09;;;18.88
47484;BMP280;54076;50.322;18.650;2022-09-20T13:48:58;99107.63;;;18.18
47484;BMP280;54076;50.322;18.650;2022-09-20T13:54:39;99112.22;;;18.08
47484;BMP280;54076;50.322;18.650;2022-09-20T13:59:44;99108.66;;;17.57
47484;BMP280;54076;50.322;18.650;2022-09-20T14:04:46;99109.80;;;17.48
47484;BMP280;54076;50.322;18.650;2022-09-20T14:09:51;99111.41;;;17.60
47484;BMP280;54076;50.322;18.650;2022-09-20T14:14:54;99109.75;;;17.47
47484;BMP280;54076;50.322;18.650;2022-09-20T14:19:55;99116.32;;;16.56
47484;BMP280;54076;50.322;18.650;2022-09-20T14:25:19;99117.48;;;16.32
47484;BMP280;54076;50.322;18.650;2022-09-20T14:30:34;99123.06;;;16.06
47484;BMP280;54076;50.322;18.650;2022-09-20T14:35:45;99118.66;;;15.82
47484;BMP280;54076;50.322;18.650;2022-09-20T14:40:48;99122.95;;;15.79
47484;BMP280;54076;50.322;18.650;2022-09-20T14:45:54;99125.91;;;15.72
47484;BMP280;54076;50.322;18.650;2022-09-20T14:56:32;99134.59;;;15.61
47484;BMP280;54076;50.322;18.650;2022-09-20T15:01:35;99139.88;;;15.62
47484;BMP280;54076;50.322;18.650;2022-09-20T15:06:37;99138.36;;;15.31
47484;BMP280;54076;50.322;18.650;2022-09-20T15:11:40;99147.69;;;15.27
47484;BMP280;54076;50.322;18.650;2022-09-20T15:16:41;99149.88;;;15.39
47484;BMP280;54076;50.322;18.650;2022-09-20T15:21:42;99162.36;;;14.93
47484;BMP280;54076;50.322;18.650;2022-09-20T15:26:43;99164.54;;;14.82
47484;BMP280;54076;50.322;18.650;2022-09-20T15:31:47;99166.60;;;14.94
47484;BMP280;54076;50.322;18.650;2022-09-20T15:36:48;99170.88;;;14.91
47484;BMP280;54076;50.322;18.650;2022-09-20T15:41:52;99179.33;;;14.82
47484;BMP280;54076;50.322;18.650;2022-09-20T15:46:53;99181.83;;;14.37
47484;BMP280;54076;50.322;18.650;2022-09-20T15:51:54;99191.41;;;14.10
47484;BMP280;54076;50.322;18.650;2022-09-20T15:56:55;99191.55;;;13.97
47484;BMP280;54076;50.322;18.650;2022-09-20T16:01:58;99198.02;;;13.98
47484;BMP280;54076;50.322;18.650;2022-09-20T16:07:00;99212.10;;;13.77
47484;BMP280;54076;50.322;18.650;2022-09-20T16:12:04;99217.32;;;13.64
47484;BMP280;54076;50.322;18.650;2022-09-20T16:17:05;99224.15;;;13.37
47484;BMP280;54076;50.322;18.650;2022-09-20T16:22:07;99230.87;;;13.52
47484;BMP280;54076;50.322;18.650;2022-09-20T16:27:08;99234.64;;;13.36
47484;BMP280;54076;50.322;18.650;2022-09-20T16:32:09;99237.13;;;13.31
47484;BMP280;54076;50.322;18.650;2022-09-20T16:37:12;99244.75;;;13.28
47484;BMP280;54076;50.322;18.650;2022-09-20T16:42:16;99251.88;;;13.19
47484;BMP280;54076;50.322;18.650;2022-09-20T16:47:18;99262.00;;;13.00
47484;BMP280;54076;50.322;18.650;2022-09-20T16:52:25;99270.71;;;12.85
47484;BMP280;54076;50.322;18.650;2022-09-20T16:57:26;99276.18;;;12.78
47484;BMP280;54076;50.322;18.650;2022-09-20T17:02:28;99279.55;;;12.69
47484;BMP280;54076;50.322;18.650;2022-09-20T17:07:29;99286.36;;;12.65
47484;BMP280;54076;50.322;18.650;2022-09-20T17:12:32;99283.35;;;12.49
47484;BMP280;54076;50.322;18.650;2022-09-20T17:17:41;99293.62;;;12.44
47484;BMP280;54076;50.322;18.650;2022-09-20T17:22:42;99301.35;;;12.38
47484;BMP280;54076;50.322;18.650;2022-09-20T17:27:44;99308.09;;;12.25
47484;BMP280;54076;50.322;18.650;2022-09-20T17:32:45;99315.16;;;12.25
47484;BMP280;54076;50.322;18.650;2022-09-20T17:37:47;99318.65;;;12.25
47484;BMP280;54076;50.322;18.650;2022-09-20T17:42:48;99322.98;;;12.28
47484;BMP280;54076;50.322;18.650;2022-09-20T17:47:49;99336.67;;;12.22
47484;BMP280;54076;50.322;18.650;2022-09-20T17:52:51;99344.73;;;12.20
47484;BMP280;54076;50.322;18.650;2022-09-20T17:57:52;99351.90;;;12.09
47484;BMP280;54076;50.322;18.650;2022-09-20T18:02:53;99356.00;;;12.04
47484;BMP280;54076;50.322;18.650;2022-09-20T18:07:53;99359.05;;;11.94
47484;BMP280;54076;50.322;18.650;2022-09-20T18:12:55;99363.81;;;11.90
47484;BMP280;54076;50.322;18.650;2022-09-20T18:17:56;99369.70;;;11.95
47484;BMP280;54076;50.322;18.650;2022-09-20T18:22:57;99374.17;;;11.82
47484;BMP280;54076;50.322;18.650;2022-09-20T18:27:58;99386.31;;;11.95
47484;BMP280;54076;50.322;18.650;2022-09-20T18:32:59;99386.99;;;11.93
47484;BMP280;54076;50.322;18.650;2022-09-20T18:38:00;99395.76;;;12.04
47484;BMP280;54076;50.322;18.650;2022-09-20T18:43:01;99398.83;;;12.07
47484;BMP280;54076;50.322;18.650;2022-09-20T18:48:03;99404.35;;;12.03
47484;BMP280;54076;50.322;18.650;2022-09-20T18:53:04;99405.80;;;12.08
47484;BMP280;54076;50.322;18.650;2022-09-20T18:58:05;99408.46;;;11.99
47484;BMP280;54076;50.322;18.650;2022-09-20T19:03:20;99409.63;;;12.01
47484;BMP280;54076;50.322;18.650;2022-09-20T19:08:31;99419.23;;;12.05
47484;BMP280;54076;50.322;18.650;2022-09-20T19:13:45;99422.26;;;12.11
47484;BMP280;54076;50.322;18.650;2022-09-20T19:19:17;99423.68;;;12.03
47484;BMP280;54076;50.322;18.650;2022-09-20T19:29:40;99425.55;;;11.95
47484;BMP280;54076;50.322;18.650;2022-09-20T19:34:43;99432.95;;;12.00
47484;BMP280;54076;50.322;18.650;2022-09-20T19:55:50;99439.38;;;11.81
47484;BMP280;54076;50.322;18.650;2022-09-20T20:00:52;99440.88;;;11.83
47484;BMP280;54076;50.322;18.650;2022-09-20T20:06:29;99447.98;;;11.76
47484;BMP280;54076;50.322;18.650;2022-09-20T21:10:00;99488.98;;;11.26
47484;BMP280;54076;50.322;18.650;2022-09-20T21:15:01;99490.16;;;11.25
47484;BMP280;54076;50.322;18.650;2022-09-20T21:20:03;99483.64;;;11.27
47484;BMP280;54076;50.322;18.650;2022-09-20T21:25:04;99488.20;;;11.21
47484;BMP280;54076;50.322;18.650;2022-09-20T21:30:08;99487.54;;;11.12
47484;BMP280;54076;50.322;18.650;2022-09-20T21:35:09;99483.94;;;11.13
47484;BMP280;54076;50.322;18.650;2022-09-20T21:40:10;99489.30;;;11.15
47484;BMP280;54076;50.322;18.650;2022-09-20T21:45:11;99493.70;;;11.18
47484;BMP280;54076;50.322;18.650;2022-09-20T21:50:12;99495.02;;;11.14
47484;BMP280;54076;50.322;18.650;2022-09-20T21:55:13;99494.77;;;11.08
47484;BMP280;54076;50.322;18.650;2022-09-20T22:00:14;99500.04;;;11.12
47484;BMP280;54076;50.322;18.650;2022-09-20T22:05:15;99504.86;;;11.01
47484;BMP280;54076;50.322;18.650;2022-09-20T22:10:16;99505.02;;;11.01
47484;BMP280;54076;50.322;18.650;2022-09-20T22:15:17;99506.83;;;10.84
47484;BMP280;54076;50.322;18.650;2022-09-20T22:20:18;99511.33;;;10.87
47484;BMP280;54076;50.322;18.650;2022-09-20T22:25:19;99511.39;;;10.77
47484;BMP280;54076;50.322;18.650;2022-09-20T22:30:20;99510.69;;;10.65
47484;BMP280;54076;50.322;18.650;2022-09-20T22:35:21;99511.17;;;10.78
47484;BMP280;54076;50.322;18.650;2022-09-20T22:40:23;99510.35;;;10.82
47484;BMP280;54076;50.322;18.650;2022-09-20T22:45:23;99517.02;;;10.88
47484;BMP280;54076;50.322;18.650;2022-09-20T22:50:24;99513.70;;;10.80
47484;BMP280;54076;50.322;18.650;2022-09-20T22:55:25;99519.02;;;10.77
47484;BMP280;54076;50.322;18.650;2022-09-20T23:00:27;99515.25;;;10.81
47484;BMP280;54076;50.322;18.650;2022-09-20T23:05:28;99521.23;;;10.85
47484;BMP280;54076;50.322;18.650;2022-09-20T23:10:29;99516.39;;;10.82
47484;BMP280;54076;50.322;18.650;2022-09-20T23:15:30;99513.33;;;10.88
47484;BMP280;54076;50.322;18.650;2022-09-20T23:20:31;99519.64;;;10.85
47484;BMP280;54076;50.322;18.650;2022-09-20T23:25:33;99518.36;;;10.81
47484;BMP280;54076;50.322;18.650;2022-09-20T23:30:34;99518.91;;;10.75
47484;BMP280;54076;50.322;18.650;2022-09-20T23:35:44;99522.02;;;10.79
47484;BMP280;54076;50.322;18.650;2022-09-20T23:40:45;99518.98;;;10.86
47484;BMP280;54076;50.322;18.650;2022-09-20T23:45:46;99521.41;;;10.91
47484;BMP280;54076;50.322;18.650;2022-09-20T23:50:47;99526.48;;;10.82
47484;BMP280;54076;50.322;18.650;2022-09-20T23:55:48;99527.42;;;10.84
